sensor_id;sensor_type;location;lat;lon;timestamp;P1;durP1;ratioP1;P2;durP2;ratioP2
25503;SDS011;13410;52.114;5.718;2023-05-29T00:00:33;21.02;;;3.90;;
25503;SDS011;13410;52.114;5.718;2023-05-29T00:03:00;21.75;;;4.28;;
25503;SDS011;13410;52.114;5.718;2023-05-29T00:05:26;20.88;;;3.90;;
25503;SDS011;13410;52.114;5.718;2023-05-29T00:07:53;23.35;;;4.10;;
25503;SDS011;13410;52.114;5.718;2023-05-29T00:10:19;17.90;;;3.55;;
25503;SDS011;13410;52.114;5.718;2023-05-29T00:12:45;20.92;;;3.38;;
25503;SDS011;13410;52.114;5.718;2023-05-29T00:15:11;19.30;;;3.50;;
25503;SDS011;13410;52.114;5.718;2023-05-29T00:17:37;22.60;;;4.07;;
25503;SDS011;13410;52.114;5.718;2023-05-29T00:20:05;16.67;;;3.50;;
25503;SDS011;13410;52.114;5.718;2023-05-29T00:22:36;20.65;;;3.92;;
25503;SDS011;13410;52.114;5.718;2023-05-29T00:25:04;22.20;;;3.97;;
25503;SDS011;13410;52.114;5.718;2023-05-29T00:27:30;20.08;;;3.92;;
25503;SDS011;13410;52.114;5.718;2023-05-29T00:29:56;21.63;;;3.90;;
25503;SDS011;13410;52.114;5.718;2023-05-29T00:32:22;23.15;;;4.10;;
25503;SDS011;13410;52.114;5.718;2023-05-29T00:34:48;15.90;;;3.50;;
25503;SDS011;13410;52.114;5.718;2023-05-29T00:37:13;21.52;;;4.00;;
25503;SDS011;13410;52.114;5.718;2023-05-29T00:39:39;16.42;;;3.63;;
25503;SDS011;13410;52.114;5.718;2023-05-29T00:42:05;21.23;;;3.70;;
25503;SDS011;13410;52.114;5.718;2023-05-29T00:44:31;22.90;;;3.63;;
25503;SDS011;13410;52.114;5.718;2023-05-29T00:46:57;20.80;;;3.70;;
25503;SDS011;13410;52.114;5.718;2023-05-29T00:49:23;20.70;;;4.05;;
25503;SDS011;13410;52.114;5.718;2023-05-29T00:51:51;21.77;;;3.70;;
25503;SDS011;13410;52.114;5.718;2023-05-29T00:54:19;18.05;;;3.50;;
25503;SDS011;13410;52.114;5.718;2023-05-29T00:56:48;17.65;;;3.72;;
25503;SDS011;13410;52.114;5.718;2023-05-29T00:59:15;27.02;;;4.10;;
25503;SDS011;13410;52.114;5.718;2023-05-29T01:01:41;16.63;;;3.33;;
25503;SDS011;13410;52.114;5.718;2023-05-29T01:04:07;19.42;;;3.80;;
25503;SDS011;13410;52.114;5.718;2023-05-29T01:06:37;20.83;;;3.45;;
25503;SDS011;13410;52.114;5.718;2023-05-29T01:09:04;19.92;;;3.67;;
25503;SDS011;13410;52.114;5.718;2023-05-29T01:11:38;18.15;;;3.55;;
25503;SDS011;13410;52.114;5.718;2023-05-29T01:14:10;23.33;;;3.75;;
25503;SDS011;13410;52.114;5.718;2023-05-29T01:17:01;17.20;;;3.28;;
25503;SDS011;13410;52.114;5.718;2023-05-29T01:19:59;23.70;;;3.63;;
25503;SDS011;13410;52.114;5.718;2023-05-29T01:25:35;18.45;;;3.58;;
25503;SDS011;13410;52.114;5.718;2023-05-29T01:28:44;16.67;;;3.65;;
25503;SDS011;13410;52.114;5.718;2023-05-29T01:31:14;19.95;;;3.38;;
25503;SDS011;13410;52.114;5.718;2023-05-29T01:33:51;18.55;;;3.15;;
25503;SDS011;13410;52.114;5.718;2023-05-29T01:36:17;23.58;;;3.83;;
25503;SDS011;13410;52.114;5.718;2023-05-29T01:38:43;17.13;;;3.35;;
25503;SDS011;13410;52.114;5.718;2023-05-29T01:41:08;21.55;;;3.58;;
25503;SDS011;13410;52.114;5.718;2023-05-29T01:43:35;14.77;;;3.45;;
25503;SDS011;13410;52.114;5.718;2023-05-29T01:46:01;18.60;;;3.47;;
25503;SDS011;13410;52.114;5.718;2023-05-29T01:48:28;17.00;;;3.40;;
25503;SDS011;13410;52.114;5.718;2023-05-29T01:50:56;22.67;;;3.85;;
25503;SDS011;13410;52.114;5.718;2023-05-29T01:53:23;17.42;;;3.72;;
25503;SDS011;13410;52.114;5.718;2023-05-29T01:55:50;16.42;;;3.20;;
25503;SDS011;13410;52.114;5.718;2023-05-29T01:58:16;17.88;;;3.30;;
25503;SDS011;13410;52.114;5.718;2023-05-29T02:00:45;22.58;;;3.55;;
25503;SDS011;13410;52.114;5.718;2023-05-29T02:03:11;20.60;;;3.30;;
25503;SDS011;13410;52.114;5.718;2023-05-29T02:05:36;20.73;;;3.95;;
25503;SDS011;13410;52.114;5.718;2023-05-29T02:08:02;20.50;;;3.83;;
25503;SDS011;13410;52.114;5.718;2023-05-29T02:10:27;16.92;;;3.25;;
25503;SDS011;13410;52.114;5.718;2023-05-29T02:12:54;18.63;;;3.25;;
25503;SDS011;13410;52.114;5.718;2023-05-29T02:15:22;16.67;;;3.08;;
25503;SDS011;13410;52.114;5.718;2023-05-29T02:17:48;21.17;;;3.70;;
25503;SDS011;13410;52.114;5.718;2023-05-29T02:20:15;11.75;;;2.88;;
25503;SDS011;13410;52.114;5.718;2023-05-29T02:22:40;18.60;;;3.40;;
25503;SDS011;13410;52.114;5.718;2023-05-29T02:25:06;15.30;;;3.25;;
25503;SDS011;13410;52.114;5.718;2023-05-29T02:27:32;18.27;;;2.97;;
25503;SDS011;13410;52.114;5.718;2023-05-29T02:29:58;18.20;;;3.40;;
25503;SDS011;13410;52.114;5.718;2023-05-29T02:32:23;20.38;;;3.47;;
25503;SDS011;13410;52.114;5.718;2023-05-29T02:34:50;17.85;;;3.47;;
25503;SDS011;13410;52.114;5.718;2023-05-29T02:37:17;15.05;;;3.13;;
25503;SDS011;13410;52.114;5.718;2023-05-29T02:39:44;16.98;;;3.17;;
25503;SDS011;13410;52.114;5.718;2023-05-29T02:42:09;17.33;;;3.28;;
25503;SDS011;13410;52.114;5.718;2023-05-29T02:44:35;21.73;;;3.30;;
25503;SDS011;13410;52.114;5.718;2023-05-29T02:47:02;21.70;;;3.20;;
25503;SDS011;13410;52.114;5.718;2023-05-29T02:49:27;13.00;;;2.90;;
25503;SDS011;13410;52.114;5.718;2023-05-29T02:51:53;17.90;;;3.03;;
25503;SDS011;13410;52.114;5.718;2023-05-29T02:54:22;17.58;;;3.15;;
25503;SDS011;13410;52.114;5.718;2023-05-29T02:56:48;17.90;;;3.20;;
25503;SDS011;13410;52.114;5.718;2023-05-29T02:59:14;18.83;;;3.78;;
25503;SDS011;13410;52.114;5.718;2023-05-29T03:01:40;15.48;;;3.72;;
25503;SDS011;13410;52.114;5.718;2023-05-29T03:04:06;19.08;;;2.88;;
25503;SDS011;13410;52.114;5.718;2023-05-29T03:06:32;24.30;;;4.07;;
25503;SDS011;13410;52.114;5.718;2023-05-29T03:08:57;15.13;;;3.40;;
25503;SDS011;13410;52.114;5.718;2023-05-29T03:11:24;25.85;;;3.50;;
25503;SDS011;13410;52.114;5.718;2023-05-29T03:13:50;15.98;;;3.35;;
25503;SDS011;13410;52.114;5.718;2023-05-29T03:16:15;11.20;;;2.42;;
25503;SDS011;13410;52.114;5.718;2023-05-29T03:18:41;17.90;;;3.22;;
25503;SDS011;13410;52.114;5.718;2023-05-29T03:21:07;21.17;;;3.80;;
25503;SDS011;13410;52.114;5.718;2023-05-29T03:23:33;13.30;;;2.45;;
25503;SDS011;13410;52.114;5.718;2023-05-29T03:25:58;17.92;;;3.38;;
25503;SDS011;13410;52.114;5.718;2023-05-29T03:28:24;13.90;;;2.97;;
25503;SDS011;13410;52.114;5.718;2023-05-29T03:30:49;11.90;;;2.65;;
25503;SDS011;13410;52.114;5.718;2023-05-29T03:33:16;17.77;;;2.83;;
25503;SDS011;13410;52.114;5.718;2023-05-29T03:35:42;17.17;;;3.40;;
25503;SDS011;13410;52.114;5.718;2023-05-29T03:38:07;21.40;;;3.35;;
25503;SDS011;13410;52.114;5.718;2023-05-29T03:40:33;19.83;;;3.30;;
25503;SDS011;13410;52.114;5.718;2023-05-29T03:42:58;16.48;;;2.90;;
25503;SDS011;13410;52.114;5.718;2023-05-29T03:45:24;19.73;;;3.33;;
25503;SDS011;13410;52.114;5.718;2023-05-29T03:47:50;22.85;;;3.83;;
25503;SDS011;13410;52.114;5.718;2023-05-29T03:50:16;14.70;;;3.45;;
25503;SDS011;13410;52.114;5.718;2023-05-29T03:52:41;14.75;;;2.55;;
25503;SDS011;13410;52.114;5.718;2023-05-29T03:55:10;13.82;;;2.90;;
25503;SDS011;13410;52.114;5.718;2023-05-29T03:57:39;20.17;;;3.55;;
25503;SDS011;13410;52.114;5.718;2023-05-29T04:00:09;14.77;;;2.60;;
25503;SDS011;13410;52.114;5.718;2023-05-29T04:02:40;14.13;;;3.00;;
25503;SDS011;13410;52.114;5.718;2023-05-29T04:05:06;17.92;;;2.60;;
25503;SDS011;13410;52.114;5.718;2023-05-29T04:07:33;16.08;;;2.45;;
25503;SDS011;13410;52.114;5.718;2023-05-29T04:10:02;11.70;;;2.50;;
25503;SDS011;13410;52.114;5.718;2023-05-29T04:12:27;18.38;;;3.38;;
25503;SDS011;13410;52.114;5.718;2023-05-29T04:14:53;16.70;;;3.03;;
25503;SDS011;13410;52.114;5.718;2023-05-29T04:17:20;17.65;;;3.00;;
25503;SDS011;13410;52.114;5.718;2023-05-29T04:19:46;11.23;;;2.28;;
25503;SDS011;13410;52.114;5.718;2023-05-29T04:22:11;13.02;;;2.67;;
25503;SDS011;13410;52.114;5.718;2023-05-29T04:24:37;13.77;;;2.25;;
25503;SDS011;13410;52.114;5.718;2023-05-29T04:27:02;12.45;;;2.40;;
25503;SDS011;13410;52.114;5.718;2023-05-29T04:29:29;10.05;;;2.13;;
25503;SDS011;13410;52.114;5.718;2023-05-29T04:31:55;9.43;;;2.22;;
25503;SDS011;13410;52.114;5.718;2023-05-29T04:34:21;12.93;;;2.40;;
25503;SDS011;13410;52.114;5.718;2023-05-29T04:36:47;13.35;;;2.13;;
25503;SDS011;13410;52.114;5.718;2023-05-29T04:39:13;9.35;;;1.83;;
25503;SDS011;13410;52.114;5.718;2023-05-29T04:41:42;9.02;;;2.40;;
25503;SDS011;13410;52.114;5.718;2023-05-29T04:44:09;12.07;;;2.20;;
25503;SDS011;13410;52.114;5.718;2023-05-29T04:46:36;10.75;;;2.40;;
25503;SDS011;13410;52.114;5.718;2023-05-29T04:49:03;15.13;;;2.30;;
25503;SDS011;13410;52.114;5.718;2023-05-29T04:51:30;9.88;;;2.33;;
25503;SDS011;13410;52.114;5.718;2023-05-29T04:53:56;10.85;;;2.25;;
25503;SDS011;13410;52.114;5.718;2023-05-29T04:56:22;10.73;;;2.75;;
25503;SDS011;13410;52.114;5.718;2023-05-29T04:58:49;13.70;;;2.80;;
25503;SDS011;13410;52.114;5.718;2023-05-29T05:01:14;11.23;;;2.00;;
25503;SDS011;13410;52.114;5.718;2023-05-29T05:03:40;11.82;;;2.17;;
25503;SDS011;13410;52.114;5.718;2023-05-29T05:06:06;12.05;;;2.25;;
25503;SDS011;13410;52.114;5.718;2023-05-29T05:08:32;10.85;;;2.08;;
25503;SDS011;13410;52.114;5.718;2023-05-29T05:11:00;12.45;;;1.70;;
25503;SDS011;13410;52.114;5.718;2023-05-29T05:13:26;11.07;;;2.25;;
25503;SDS011;13410;52.114;5.718;2023-05-29T05:15:53;12.20;;;2.03;;
25503;SDS011;13410;52.114;5.718;2023-05-29T05:18:20;16.95;;;2.20;;
25503;SDS011;13410;52.114;5.718;2023-05-29T05:20:46;11.88;;;2.13;;
25503;SDS011;13410;52.114;5.718;2023-05-29T05:23:13;10.60;;;1.88;;
25503;SDS011;13410;52.114;5.718;2023-05-29T05:25:38;12.85;;;2.28;;
25503;SDS011;13410;52.114;5.718;2023-05-29T05:28:04;10.20;;;1.80;;
25503;SDS011;13410;52.114;5.718;2023-05-29T05:30:30;12.68;;;2.17;;
25503;SDS011;13410;52.114;5.718;2023-05-29T05:32:56;9.63;;;1.80;;
25503;SDS011;13410;52.114;5.718;2023-05-29T05:35:23;8.20;;;1.77;;
25503;SDS011;13410;52.114;5.718;2023-05-29T05:37:49;10.73;;;2.00;;
25503;SDS011;13410;52.114;5.718;2023-05-29T05:40:16;8.20;;;2.08;;
25503;SDS011;13410;52.114;5.718;2023-05-29T05:42:41;12.35;;;1.75;;
25503;SDS011;13410;52.114;5.718;2023-05-29T05:45:07;8.38;;;2.03;;
25503;SDS011;13410;52.114;5.718;2023-05-29T05:47:34;10.73;;;2.17;;
25503;SDS011;13410;52.114;5.718;2023-05-29T05:50:00;8.23;;;2.05;;
25503;SDS011;13410;52.114;5.718;2023-05-29T05:52:25;6.72;;;1.80;;
25503;SDS011;13410;52.114;5.718;2023-05-29T05:54:55;11.23;;;2.08;;
25503;SDS011;13410;52.114;5.718;2023-05-29T05:57:20;9.70;;;2.00;;
25503;SDS011;13410;52.114;5.718;2023-05-29T05:59:46;13.50;;;2.20;;
25503;SDS011;13410;52.114;5.718;2023-05-29T06:02:12;11.52;;;2.10;;
25503;SDS011;13410;52.114;5.718;2023-05-29T06:04:37;4.40;;;1.50;;
25503;SDS011;13410;52.114;5.718;2023-05-29T06:07:03;7.82;;;2.10;;
25503;SDS011;13410;52.114;5.718;2023-05-29T06:09:36;9.40;;;1.95;;
25503;SDS011;13410;52.114;5.718;2023-05-29T06:12:03;8.00;;;1.70;;
25503;SDS011;13410;52.114;5.718;2023-05-29T06:14:29;9.50;;;2.00;;
25503;SDS011;13410;52.114;5.718;2023-05-29T06:16:55;10.25;;;2.35;;
25503;SDS011;13410;52.114;5.718;2023-05-29T06:19:21;8.50;;;1.88;;
25503;SDS011;13410;52.114;5.718;2023-05-29T06:21:47;10.60;;;2.30;;
25503;SDS011;13410;52.114;5.718;2023-05-29T06:24:12;11.95;;;2.10;;
25503;SDS011;13410;52.114;5.718;2023-05-29T06:26:38;9.45;;;1.85;;
25503;SDS011;13410;52.114;5.718;2023-05-29T06:29:04;8.32;;;1.90;;
25503;SDS011;13410;52.114;5.718;2023-05-29T06:31:31;10.60;;;1.90;;
25503;SDS011;13410;52.114;5.718;2023-05-29T06:33:58;10.10;;;1.90;;
25503;SDS011;13410;52.114;5.718;2023-05-29T06:36:23;8.13;;;1.50;;
25503;SDS011;13410;52.114;5.718;2023-05-29T06:38:50;9.57;;;1.80;;
25503;SDS011;13410;52.114;5.718;2023-05-29T06:41:16;8.07;;;1.50;;
25503;SDS011;13410;52.114;5.718;2023-05-29T06:43:41;11.85;;;2.08;;
25503;SDS011;13410;52.114;5.718;2023-05-29T06:46:07;8.10;;;1.80;;
25503;SDS011;13410;52.114;5.718;2023-05-29T06:48:33;10.20;;;1.65;;
25503;SDS011;13410;52.114;5.718;2023-05-29T06:51:02;8.57;;;1.73;;
25503;SDS011;13410;52.114;5.718;2023-05-29T06:53:35;9.23;;;1.67;;
25503;SDS011;13410;52.114;5.718;2023-05-29T06:56:01;8.73;;;1.60;;
25503;SDS011;13410;52.114;5.718;2023-05-29T06:58:27;7.53;;;2.00;;
25503;SDS011;13410;52.114;5.718;2023-05-29T07:00:52;7.40;;;1.88;;
25503;SDS011;13410;52.114;5.718;2023-05-29T07:03:18;10.13;;;2.22;;
25503;SDS011;13410;52.114;5.718;2023-05-29T07:05:43;9.02;;;1.85;;
25503;SDS011;13410;52.114;5.718;2023-05-29T07:08:09;8.20;;;2.28;;
25503;SDS011;13410;52.114;5.718;2023-05-29T07:10:34;5.22;;;1.50;;
25503;SDS011;13410;52.114;5.718;2023-05-29T07:13:00;7.85;;;1.60;;
25503;SDS011;13410;52.114;5.718;2023-05-29T07:15:25;7.35;;;2.00;;
25503;SDS011;13410;52.114;5.718;2023-05-29T07:17:52;10.57;;;2.55;;
25503;SDS011;13410;52.114;5.718;2023-05-29T07:20:18;6.63;;;1.73;;
25503;SDS011;13410;52.114;5.718;2023-05-29T07:22:46;8.15;;;1.80;;
25503;SDS011;13410;52.114;5.718;2023-05-29T07:25:14;9.98;;;2.08;;
25503;SDS011;13410;52.114;5.718;2023-05-29T07:27:40;8.93;;;1.70;;
25503;SDS011;13410;52.114;5.718;2023-05-29T07:30:06;10.05;;;1.85;;
25503;SDS011;13410;52.114;5.718;2023-05-29T07:32:32;10.25;;;1.98;;
25503;SDS011;13410;52.114;5.718;2023-05-29T07:34:58;8.35;;;2.20;;
25503;SDS011;13410;52.114;5.718;2023-05-29T07:37:24;7.57;;;1.90;;
25503;SDS011;13410;52.114;5.718;2023-05-29T07:39:51;7.25;;;1.75;;
25503;SDS011;13410;52.114;5.718;2023-05-29T07:42:16;9.27;;;2.03;;
25503;SDS011;13410;52.114;5.718;2023-05-29T07:44:43;10.88;;;2.00;;
25503;SDS011;13410;52.114;5.718;2023-05-29T07:47:10;7.95;;;1.70;;
25503;SDS011;13410;52.114;5.718;2023-05-29T07:49:36;9.18;;;1.80;;
25503;SDS011;13410;52.114;5.718;2023-05-29T07:52:02;8.88;;;2.30;;
25503;SDS011;13410;52.114;5.718;2023-05-29T07:54:28;8.05;;;2.05;;
25503;SDS011;13410;52.114;5.718;2023-05-29T07:56:57;9.13;;;2.17;;
25503;SDS011;13410;52.114;5.718;2023-05-29T07:59:31;13.73;;;2.13;;
25503;SDS011;13410;52.114;5.718;2023-05-29T08:01:58;8.25;;;2.10;;
25503;SDS011;13410;52.114;5.718;2023-05-29T08:04:25;8.43;;;2.10;;
25503;SDS011;13410;52.114;5.718;2023-05-29T08:06:51;7.35;;;1.73;;
25503;SDS011;13410;52.114;5.718;2023-05-29T08:09:19;10.02;;;2.13;;
25503;SDS011;13410;52.114;5.718;2023-05-29T08:11:45;7.75;;;1.80;;
25503;SDS011;13410;52.114;5.718;2023-05-29T08:14:12;10.00;;;2.20;;
25503;SDS011;13410;52.114;5.718;2023-05-29T08:16:38;8.27;;;2.00;;
25503;SDS011;13410;52.114;5.718;2023-05-29T08:19:04;9.20;;;2.00;;
25503;SDS011;13410;52.114;5.718;2023-05-29T08:21:30;11.55;;;2.30;;
25503;SDS011;13410;52.114;5.718;2023-05-29T08:23:58;9.93;;;1.98;;
25503;SDS011;13410;52.114;5.718;2023-05-29T08:26:24;10.35;;;2.20;;
25503;SDS011;13410;52.114;5.718;2023-05-29T08:28:50;11.38;;;2.35;;
25503;SDS011;13410;52.114;5.718;2023-05-29T08:31:16;9.82;;;2.20;;
25503;SDS011;13410;52.114;5.718;2023-05-29T08:33:42;10.35;;;2.30;;
25503;SDS011;13410;52.114;5.718;2023-05-29T08:36:07;6.88;;;1.60;;
25503;SDS011;13410;52.114;5.718;2023-05-29T08:38:33;10.45;;;2.20;;
25503;SDS011;13410;52.114;5.718;2023-05-29T08:41:00;8.32;;;1.90;;
25503;SDS011;13410;52.114;5.718;2023-05-29T08:43:29;12.05;;;2.22;;
25503;SDS011;13410;52.114;5.718;2023-05-29T08:45:59;7.70;;;2.00;;
25503;SDS011;13410;52.114;5.718;2023-05-29T08:48:27;8.55;;;1.90;;
25503;SDS011;13410;52.114;5.718;2023-05-29T08:50:55;8.43;;;2.08;;
25503;SDS011;13410;52.114;5.718;2023-05-29T08:53:24;8.50;;;2.15;;
25503;SDS011;13410;52.114;5.718;2023-05-29T08:55:51;9.77;;;1.92;;
25503;SDS011;13410;52.114;5.718;2023-05-29T08:58:17;8.88;;;2.13;;
25503;SDS011;13410;52.114;5.718;2023-05-29T09:00:48;10.73;;;2.17;;
25503;SDS011;13410;52.114;5.718;2023-05-29T09:03:14;11.10;;;2.50;;
25503;SDS011;13410;52.114;5.718;2023-05-29T09:05:40;10.15;;;2.42;;
25503;SDS011;13410;52.114;5.718;2023-05-29T09:08:10;7.32;;;2.17;;
25503;SDS011;13410;52.114;5.718;2023-05-29T09:10:43;8.38;;;1.92;;
25503;SDS011;13410;52.114;5.718;2023-05-29T09:13:10;8.98;;;2.08;;
25503;SDS011;13410;52.114;5.718;2023-05-29T09:15:36;9.63;;;2.30;;
25503;SDS011;13410;52.114;5.718;2023-05-29T09:18:04;8.27;;;1.92;;
25503;SDS011;13410;52.114;5.718;2023-05-29T09:20:30;8.52;;;1.90;;
25503;SDS011;13410;52.114;5.718;2023-05-29T09:23:00;8.68;;;1.90;;
25503;SDS011;13410;52.114;5.718;2023-05-29T09:25:28;9.35;;;2.10;;
25503;SDS011;13410;52.114;5.718;2023-05-29T09:28:13;10.10;;;2.25;;
25503;SDS011;13410;52.114;5.718;2023-05-29T09:30:48;8.82;;;2.05;;
25503;SDS011;13410;52.114;5.718;2023-05-29T09:33:15;14.38;;;2.38;;
25503;SDS011;13410;52.114;5.718;2023-05-29T09:35:44;8.05;;;1.92;;
25503;SDS011;13410;52.114;5.718;2023-05-29T09:38:20;6.32;;;1.85;;
25503;SDS011;13410;52.114;5.718;2023-05-29T09:40:46;7.90;;;1.90;;
25503;SDS011;13410;52.114;5.718;2023-05-29T09:43:12;9.48;;;1.95;;
25503;SDS011;13410;52.114;5.718;2023-05-29T09:45:48;8.13;;;2.05;;
25503;SDS011;13410;52.114;5.718;2023-05-29T09:48:16;10.82;;;2.35;;
25503;SDS011;13410;52.114;5.718;2023-05-29T09:50:43;5.90;;;1.70;;
25503;SDS011;13410;52.114;5.718;2023-05-29T09:55:44;8.45;;;2.13;;
25503;SDS011;13410;52.114;5.718;2023-05-29T09:58:14;8.85;;;2.05;;
25503;SDS011;13410;52.114;5.718;2023-05-29T10:00:41;8.43;;;2.20;;
25503;SDS011;13410;52.114;5.718;2023-05-29T10:03:08;6.75;;;2.35;;
25503;SDS011;13410;52.114;5.718;2023-05-29T10:05:34;8.15;;;2.00;;
25503;SDS011;13410;52.114;5.718;2023-05-29T10:08:03;7.97;;;2.30;;
25503;SDS011;13410;52.114;5.718;2023-05-29T10:10:33;10.73;;;2.33;;
25503;SDS011;13410;52.114;5.718;2023-05-29T10:13:00;6.97;;;2.15;;
25503;SDS011;13410;52.114;5.718;2023-05-29T10:15:28;10.48;;;2.10;;
25503;SDS011;13410;52.114;5.718;2023-05-29T10:18:04;10.38;;;2.50;;
25503;SDS011;13410;52.114;5.718;2023-05-29T10:20:37;9.00;;;2.13;;
25503;SDS011;13410;52.114;5.718;2023-05-29T10:23:06;8.77;;;2.30;;
25503;SDS011;13410;52.114;5.718;2023-05-29T10:25:34;7.13;;;1.88;;
25503;SDS011;13410;52.114;5.718;2023-05-29T10:28:01;8.57;;;2.38;;
25503;SDS011;13410;52.114;5.718;2023-05-29T10:30:47;10.30;;;2.30;;
25503;SDS011;13410;52.114;5.718;2023-05-29T10:35:55;8.40;;;2.10;;
25503;SDS011;13410;52.114;5.718;2023-05-29T10:38:29;8.70;;;2.28;;
25503;SDS011;13410;52.114;5.718;2023-05-29T10:40:56;7.40;;;2.28;;
25503;SDS011;13410;52.114;5.718;2023-05-29T10:43:41;7.20;;;2.13;;
25503;SDS011;13410;52.114;5.718;2023-05-29T10:46:09;10.88;;;2.35;;
25503;SDS011;13410;52.114;5.718;2023-05-29T10:48:38;11.70;;;2.95;;
25503;SDS011;13410;52.114;5.718;2023-05-29T10:51:05;7.63;;;1.88;;
25503;SDS011;13410;52.114;5.718;2023-05-29T10:53:32;9.73;;;2.05;;
25503;SDS011;13410;52.114;5.718;2023-05-29T10:55:58;7.68;;;2.47;;
25503;SDS011;13410;52.114;5.718;2023-05-29T10:58:26;9.93;;;2.38;;
25503;SDS011;13410;52.114;5.718;2023-05-29T11:00:52;8.50;;;2.40;;
25503;SDS011;13410;52.114;5.718;2023-05-29T11:03:21;10.48;;;2.67;;
25503;SDS011;13410;52.114;5.718;2023-05-29T11:06:04;9.48;;;2.58;;
25503;SDS011;13410;52.114;5.718;2023-05-29T11:11:11;10.50;;;2.50;;
25503;SDS011;13410;52.114;5.718;2023-05-29T11:13:40;10.60;;;2.30;;
25503;SDS011;13410;52.114;5.718;2023-05-29T11:16:10;9.45;;;2.28;;
25503;SDS011;13410;52.114;5.718;2023-05-29T11:18:38;11.07;;;2.47;;
25503;SDS011;13410;52.114;5.718;2023-05-29T11:21:53;8.13;;;2.15;;
25503;SDS011;13410;52.114;5.718;2023-05-29T11:24:22;10.00;;;2.30;;
25503;SDS011;13410;52.114;5.718;2023-05-29T11:26:52;10.93;;;2.42;;
25503;SDS011;13410;52.114;5.718;2023-05-29T11:29:26;8.90;;;2.10;;
25503;SDS011;13410;52.114;5.718;2023-05-29T11:32:03;8.10;;;2.28;;
25503;SDS011;13410;52.114;5.718;2023-05-29T11:34:31;8.48;;;2.40;;
25503;SDS011;13410;52.114;5.718;2023-05-29T11:37:01;13.43;;;2.95;;
25503;SDS011;13410;52.114;5.718;2023-05-29T11:39:27;9.55;;;2.35;;
25503;SDS011;13410;52.114;5.718;2023-05-29T11:41:56;11.23;;;2.67;;
25503;SDS011;13410;52.114;5.718;2023-05-29T11:44:24;10.90;;;2.80;;
25503;SDS011;13410;52.114;5.718;2023-05-29T11:47:04;8.95;;;2.22;;
25503;SDS011;13410;52.114;5.718;2023-05-29T11:49:32;8.07;;;2.50;;
25503;SDS011;13410;52.114;5.718;2023-05-29T11:52:12;9.23;;;2.38;;
25503;SDS011;13410;52.114;5.718;2023-05-29T11:54:39;7.55;;;2.45;;
25503;SDS011;13410;52.114;5.718;2023-05-29T11:57:07;12.50;;;2.95;;
25503;SDS011;13410;52.114;5.718;2023-05-29T11:59:36;8.93;;;2.25;;
25503;SDS011;13410;52.114;5.718;2023-05-29T12:02:03;10.45;;;2.80;;
25503;SDS011;13410;52.114;5.718;2023-05-29T12:04:29;9.95;;;2.45;;
25503;SDS011;13410;52.114;5.718;2023-05-29T12:06:58;10.70;;;2.53;;
25503;SDS011;13410;52.114;5.718;2023-05-29T12:09:28;11.57;;;2.30;;
25503;SDS011;13410;52.114;5.718;2023-05-29T12:12:00;8.18;;;1.98;;
25503;SDS011;13410;52.114;5.718;2023-05-29T12:14:27;13.18;;;2.75;;
25503;SDS011;13410;52.114;5.718;2023-05-29T12:16:53;6.72;;;2.50;;
25503;SDS011;13410;52.114;5.718;2023-05-29T12:19:18;9.50;;;2.50;;
25503;SDS011;13410;52.114;5.718;2023-05-29T12:21:44;12.45;;;2.85;;
25503;SDS011;13410;52.114;5.718;2023-05-29T12:24:10;10.90;;;2.83;;
25503;SDS011;13410;52.114;5.718;2023-05-29T12:26:35;11.77;;;2.67;;
25503;SDS011;13410;52.114;5.718;2023-05-29T12:29:02;12.35;;;2.50;;
25503;SDS011;13410;52.114;5.718;2023-05-29T12:31:32;7.95;;;2.25;;
25503;SDS011;13410;52.114;5.718;2023-05-29T12:34:16;8.30;;;2.70;;
25503;SDS011;13410;52.114;5.718;2023-05-29T12:36:44;8.23;;;2.22;;
25503;SDS011;13410;52.114;5.718;2023-05-29T12:39:10;9.05;;;2.47;;
25503;SDS011;13410;52.114;5.718;2023-05-29T12:41:36;11.20;;;2.90;;
25503;SDS011;13410;52.114;5.718;2023-05-29T12:44:03;9.23;;;2.30;;
25503;SDS011;13410;52.114;5.718;2023-05-29T12:46:40;10.02;;;2.63;;
25503;SDS011;13410;52.114;5.718;2023-05-29T12:49:11;7.97;;;2.45;;
25503;SDS011;13410;52.114;5.718;2023-05-29T12:51:40;8.48;;;2.40;;
25503;SDS011;13410;52.114;5.718;2023-05-29T12:54:11;10.23;;;2.20;;
25503;SDS011;13410;52.114;5.718;2023-05-29T12:56:39;10.75;;;2.30;;
25503;SDS011;13410;52.114;5.718;2023-05-29T12:59:06;7.72;;;2.08;;
25503;SDS011;13410;52.114;5.718;2023-05-29T13:01:33;7.65;;;2.25;;
25503;SDS011;13410;52.114;5.718;2023-05-29T13:03:58;11.70;;;2.33;;
25503;SDS011;13410;52.114;5.718;2023-05-29T13:06:24;10.55;;;2.38;;
25503;SDS011;13410;52.114;5.718;2023-05-29T13:08:49;9.77;;;2.40;;
25503;SDS011;13410;52.114;5.718;2023-05-29T13:11:16;10.25;;;2.30;;
25503;SDS011;13410;52.114;5.718;2023-05-29T13:13:42;12.35;;;2.85;;
25503;SDS011;13410;52.114;5.718;2023-05-29T13:16:07;9.82;;;2.72;;
25503;SDS011;13410;52.114;5.718;2023-05-29T13:18:33;9.88;;;2.50;;
25503;SDS011;13410;52.114;5.718;2023-05-29T13:20:59;9.88;;;2.28;;
25503;SDS011;13410;52.114;5.718;2023-05-29T13:23:25;9.13;;;2.10;;
25503;SDS011;13410;52.114;5.718;2023-05-29T13:25:51;8.90;;;2.47;;
25503;SDS011;13410;52.114;5.718;2023-05-29T13:28:18;11.60;;;3.13;;
25503;SDS011;13410;52.114;5.718;2023-05-29T13:30:49;12.65;;;2.70;;
25503;SDS011;13410;52.114;5.718;2023-05-29T13:33:15;10.27;;;2.40;;
25503;SDS011;13410;52.114;5.718;2023-05-29T13:35:41;12.02;;;2.50;;
25503;SDS011;13410;52.114;5.718;2023-05-29T13:38:08;13.38;;;2.38;;
25503;SDS011;13410;52.114;5.718;2023-05-29T13:40:34;12.05;;;2.50;;
25503;SDS011;13410;52.114;5.718;2023-05-29T13:42:59;10.43;;;2.58;;
25503;SDS011;13410;52.114;5.718;2023-05-29T13:45:25;13.15;;;2.38;;
25503;SDS011;13410;52.114;5.718;2023-05-29T13:47:52;11.60;;;2.10;;
25503;SDS011;13410;52.114;5.718;2023-05-29T13:50:18;10.77;;;2.13;;
25503;SDS011;13410;52.114;5.718;2023-05-29T13:52:44;13.15;;;2.60;;
25503;SDS011;13410;52.114;5.718;2023-05-29T13:55:10;13.93;;;2.53;;
25503;SDS011;13410;52.114;5.718;2023-05-29T13:57:36;9.23;;;2.50;;
25503;SDS011;13410;52.114;5.718;2023-05-29T14:00:02;12.18;;;2.92;;
25503;SDS011;13410;52.114;5.718;2023-05-29T14:02:28;8.93;;;2.63;;
25503;SDS011;13410;52.114;5.718;2023-05-29T14:04:55;10.75;;;2.50;;
25503;SDS011;13410;52.114;5.718;2023-05-29T14:07:22;10.38;;;2.10;;
25503;SDS011;13410;52.114;5.718;2023-05-29T14:09:47;11.80;;;2.60;;
25503;SDS011;13410;52.114;5.718;2023-05-29T14:12:13;14.43;;;2.65;;
25503;SDS011;13410;52.114;5.718;2023-05-29T14:14:38;7.53;;;2.15;;
25503;SDS011;13410;52.114;5.718;2023-05-29T14:17:05;9.73;;;2.05;;
25503;SDS011;13410;52.114;5.718;2023-05-29T14:19:31;9.60;;;2.42;;
25503;SDS011;13410;52.114;5.718;2023-05-29T14:21:56;9.45;;;2.13;;
25503;SDS011;13410;52.114;5.718;2023-05-29T14:24:24;6.30;;;2.20;;
25503;SDS011;13410;52.114;5.718;2023-05-29T14:26:50;9.20;;;2.50;;
25503;SDS011;13410;52.114;5.718;2023-05-29T14:29:15;7.00;;;2.20;;
25503;SDS011;13410;52.114;5.718;2023-05-29T14:31:42;7.85;;;2.00;;
25503;SDS011;13410;52.114;5.718;2023-05-29T14:34:08;7.95;;;2.50;;
25503;SDS011;13410;52.114;5.718;2023-05-29T14:36:34;4.75;;;1.88;;
25503;SDS011;13410;52.114;5.718;2023-05-29T14:39:00;10.20;;;2.20;;
25503;SDS011;13410;52.114;5.718;2023-05-29T14:41:27;7.75;;;2.40;;
25503;SDS011;13410;52.114;5.718;2023-05-29T14:43:52;12.80;;;2.28;;
25503;SDS011;13410;52.114;5.718;2023-05-29T14:46:19;13.15;;;2.63;;
25503;SDS011;13410;52.114;5.718;2023-05-29T14:48:45;10.27;;;2.65;;
25503;SDS011;13410;52.114;5.718;2023-05-29T14:51:13;7.85;;;2.15;;
25503;SDS011;13410;52.114;5.718;2023-05-29T14:53:40;12.85;;;2.63;;